createdAt,value
2022-11-07T00:01:52.268Z,27.67
2022-11-07T00:04:20.177Z,28.40
2022-11-07T00:06:48.051Z,29.03
2022-11-07T00:09:16.000Z,31.40
2022-11-07T00:11:43.864Z,32.17
2022-11-07T00:14:13.035Z,40.30
2022-11-07T00:16:42.747Z,53.70
2022-11-07T00:19:11.006Z,44.27
2022-11-07T00:21:39.712Z,45.53
2022-11-07T00:24:08.703Z,57.57
2022-11-07T00:26:36.609Z,58.50
2022-11-07T00:29:05.170Z,57.87
2022-11-07T00:31:33.746Z,57.90
2022-11-07T00:34:02.951Z,43.17
2022-11-07T00:36:30.828Z,42.27
2022-11-07T00:38:58.678Z,38.70
2022-11-07T00:41:26.527Z,37.33
2022-11-07T00:43:54.567Z,35.73
2022-11-07T00:46:23.114Z,39.50
2022-11-07T00:48:51.697Z,38.27
2022-11-07T00:51:23.114Z,37.13
2022-11-07T00:53:51.654Z,39.73
2022-11-07T00:56:21.330Z,37.60
2022-11-07T00:58:49.672Z,39.33
2022-11-07T01:01:21.070Z,39.90
2022-11-07T01:04:07.415Z,39.87
2022-11-07T01:06:38.514Z,41.83
2022-11-07T01:09:07.038Z,38.50
2022-11-07T01:11:36.381Z,38.47
2022-11-07T01:14:05.009Z,38.37
2022-11-07T01:16:35.359Z,39.50
2022-11-07T01:19:04.033Z,40.73
2022-11-07T01:21:32.425Z,36.27
2022-11-07T01:24:03.537Z,42.03
2022-11-07T01:26:31.482Z,37.23
2022-11-07T01:28:59.326Z,41.17
2022-11-07T01:31:27.226Z,37.90
2022-11-07T01:33:55.120Z,39.23
2022-11-07T01:36:22.963Z,37.70
2022-11-07T01:38:50.838Z,39.67
2022-11-07T01:41:24.162Z,36.17
2022-11-07T01:43:58.672Z,40.83
2022-11-07T01:46:29.166Z,42.90
2022-11-07T01:49:02.930Z,36.60
2022-11-07T01:51:32.827Z,38.97
2022-11-07T01:54:01.683Z,38.53
2022-11-07T01:56:36.726Z,37.40
2022-11-07T01:59:05.951Z,42.33
2022-11-07T02:01:34.068Z,43.03
2022-11-07T02:04:03.428Z,46.13
2022-11-07T02:06:40.147Z,38.20
2022-11-07T02:09:08.043Z,38.17
2022-11-07T02:11:37.594Z,36.57
2022-11-07T02:14:05.633Z,38.70
2022-11-07T02:16:35.351Z,38.37
2022-11-07T02:19:08.726Z,37.80
2022-11-07T02:21:46.727Z,37.67
2022-11-07T02:24:26.004Z,40.43
2022-11-07T02:26:57.132Z,42.93
2022-11-07T02:29:26.811Z,41.13
2022-11-07T02:32:02.840Z,37.37
2022-11-07T02:34:31.255Z,37.37
2022-11-07T02:37:02.123Z,47.57
2022-11-07T02:39:31.731Z,41.53
2022-11-07T02:42:01.253Z,37.93
2022-11-07T02:44:30.747Z,40.47
2022-11-07T02:46:59.412Z,38.37
2022-11-07T02:49:27.294Z,39.83
2022-11-07T02:51:55.168Z,38.93
2022-11-07T02:54:23.026Z,40.03
2022-11-07T02:56:52.225Z,41.87
2022-11-07T02:59:25.762Z,44.10
2022-11-07T03:01:54.929Z,37.93
2022-11-07T03:04:24.103Z,39.20
2022-11-07T03:06:51.993Z,38.37
2022-11-07T03:09:19.837Z,38.00
2022-11-07T03:11:47.703Z,43.40
2022-11-07T03:14:17.098Z,39.70
2022-11-07T03:16:44.930Z,37.97
2022-11-07T03:19:12.748Z,38.33
2022-11-07T03:21:40.577Z,40.57
2022-11-07T03:24:08.636Z,38.73
2022-11-07T03:26:36.478Z,38.70
2022-11-07T03:29:04.437Z,38.53
2022-11-07T03:31:33.697Z,38.53
2022-11-07T03:34:01.745Z,43.27
2022-11-07T03:36:29.790Z,37.93
2022-11-07T03:38:58.017Z,37.60
2022-11-07T03:41:25.878Z,41.20
2022-11-07T03:43:53.970Z,37.17
2022-11-07T03:46:21.882Z,38.17
2022-11-07T03:48:51.086Z,34.33
2022-11-07T03:51:18.926Z,37.60
2022-11-07T03:53:46.793Z,36.30
2022-11-07T03:56:14.747Z,36.40
2022-11-07T03:58:42.610Z,35.73
2022-11-07T04:01:11.663Z,34.23
2022-11-07T04:03:39.517Z,33.70
2022-11-07T04:06:09.213Z,34.87
2022-11-07T04:08:37.715Z,33.23
2022-11-07T04:11:05.578Z,33.47
2022-11-07T04:13:50.587Z,33.37
2022-11-07T04:16:37.516Z,31.87
2022-11-07T04:19:05.627Z,33.63
2022-11-07T04:21:35.017Z,34.43
2022-11-07T04:24:02.869Z,34.37
2022-11-07T04:26:47.880Z,35.97
2022-11-07T04:29:15.694Z,35.10
2022-11-07T04:31:43.537Z,36.10
2022-11-07T04:34:11.428Z,35.00
2022-11-07T04:36:40.597Z,33.47
2022-11-07T04:39:08.523Z,32.50
2022-11-07T04:41:36.395Z,33.13
2022-11-07T04:44:04.325Z,32.17
2022-11-07T04:46:32.209Z,32.70
2022-11-07T04:49:00.096Z,32.07
2022-11-07T04:51:28.171Z,35.37
2022-11-07T04:53:57.386Z,30.63
2022-11-07T04:56:25.250Z,31.00
2022-11-07T04:58:53.094Z,30.27
2022-11-07T05:01:21.063Z,33.13
2022-11-07T05:03:49.201Z,33.10
2022-11-07T05:06:17.078Z,31.80
2022-11-07T05:08:44.946Z,33.30
2022-11-07T05:11:14.169Z,31.23
2022-11-07T05:13:42.301Z,30.03
2022-11-07T05:16:15.206Z,30.03
2022-11-07T05:18:43.054Z,35.27
2022-11-07T05:21:11.140Z,33.73
2022-11-07T05:23:39.058Z,36.73
2022-11-07T05:26:07.172Z,36.47
2022-11-07T05:28:39.447Z,33.37
2022-11-07T05:31:09.608Z,33.13
2022-11-07T05:33:37.729Z,32.73
2022-11-07T05:36:14.070Z,35.53
2022-11-07T05:38:43.600Z,34.90
2022-11-07T05:41:12.011Z,33.93
2022-11-07T05:43:41.581Z,37.17
2022-11-07T05:46:09.990Z,38.93
2022-11-07T05:48:38.091Z,34.87
2022-11-07T05:51:06.740Z,38.40
2022-11-07T05:53:35.041Z,35.43
2022-11-07T05:56:02.978Z,36.67
2022-11-07T05:58:30.871Z,36.60
2022-11-07T06:01:03.815Z,43.87
2022-11-07T06:03:32.091Z,42.60
2022-11-07T06:06:00.462Z,42.90
2022-11-07T06:08:28.339Z,47.30
2022-11-07T06:10:56.188Z,54.07
2022-11-07T06:13:24.383Z,50.13
2022-11-07T06:15:52.361Z,49.80
2022-11-07T06:18:22.339Z,43.20
2022-11-07T06:20:50.758Z,45.07
2022-11-07T06:23:20.054Z,39.03
2022-11-07T06:25:48.535Z,42.13
2022-11-07T06:28:16.511Z,35.57
2022-11-07T06:30:44.644Z,39.20
2022-11-07T06:33:15.196Z,37.20
2022-11-07T06:35:45.827Z,38.17
2022-11-07T06:38:15.164Z,40.73
2022-11-07T06:40:43.667Z,40.73
2022-11-07T06:43:14.720Z,36.63
2022-11-07T06:45:43.712Z,38.90
2022-11-07T06:48:12.710Z,40.40
2022-11-07T06:50:40.925Z,40.77
2022-11-07T06:53:12.691Z,40.70
2022-11-07T06:55:41.394Z,42.77
2022-11-07T06:58:09.309Z,43.97
2022-11-07T07:00:38.154Z,53.27
2022-11-07T07:03:06.736Z,62.63
2022-11-07T07:05:34.905Z,54.27
2022-11-07T07:08:03.112Z,51.50
2022-11-07T07:10:33.261Z,46.57
2022-11-07T07:13:01.305Z,44.13
2022-11-07T07:15:29.560Z,39.23
2022-11-07T07:18:01.256Z,42.67
2022-11-07T07:20:30.212Z,39.07
2022-11-07T07:23:04.399Z,37.33
2022-11-07T07:25:34.839Z,37.37
2022-11-07T07:28:02.706Z,36.30
2022-11-07T07:30:31.677Z,40.13
2022-11-07T07:32:59.578Z,41.93
2022-11-07T07:35:27.427Z,37.07
2022-11-07T07:37:55.331Z,40.03
2022-11-07T07:40:23.484Z,41.20
2022-11-07T07:42:52.672Z,38.43
2022-11-07T07:45:20.547Z,44.87
2022-11-07T07:47:48.399Z,38.03
2022-11-07T07:50:16.668Z,42.97
2022-11-07T07:52:44.846Z,31.97
2022-11-07T07:55:12.698Z,31.97
2022-11-07T07:57:41.937Z,32.23
2022-11-07T08:00:13.139Z,32.13
2022-11-07T08:02:43.494Z,32.03
2022-11-07T08:05:12.294Z,32.77
2022-11-07T08:07:46.708Z,34.03
2022-11-07T08:10:40.133Z,30.37
2022-11-07T08:13:02.873Z,36.63
2022-11-07T08:15:32.104Z,31.17
2022-11-07T08:18:02.578Z,35.07
2022-11-07T08:20:30.425Z,35.23
2022-11-07T08:23:02.651Z,35.00
2022-11-07T08:25:30.832Z,30.30
2022-11-07T08:27:58.836Z,37.37
2022-11-07T08:30:28.344Z,32.43
2022-11-07T08:33:00.506Z,34.93
2022-11-07T08:35:28.388Z,29.33
2022-11-07T08:37:56.228Z,28.67
2022-11-07T08:40:24.378Z,27.27
2022-11-07T08:42:52.225Z,29.73
2022-11-07T08:45:20.337Z,28.70
2022-11-07T08:47:48.160Z,31.13
2022-11-07T08:50:17.621Z,31.37
2022-11-07T08:52:45.480Z,34.73
2022-11-07T08:55:13.311Z,32.63
2022-11-07T08:57:41.229Z,31.33
2022-11-07T09:00:10.279Z,30.90
2022-11-07T09:03:17.851Z,31.30
2022-11-07T09:05:27.358Z,31.30
2022-11-07T09:07:55.203Z,34.63
2022-11-07T09:10:23.476Z,34.17
2022-11-07T09:12:52.119Z,33.87
2022-11-07T09:15:21.222Z,32.60
2022-11-07T09:17:51.016Z,30.57
2022-11-07T09:20:19.821Z,33.77
2022-11-07T09:23:25.282Z,31.33
2022-11-07T09:25:54.543Z,28.47
2022-11-07T09:28:22.468Z,36.60
2022-11-07T09:30:54.691Z,27.80
2022-11-07T09:33:22.645Z,28.30
2022-11-07T09:35:51.282Z,27.92
2022-11-07T09:38:19.474Z,25.50
2022-11-07T09:40:53.955Z,24.58
2022-11-07T09:43:35.488Z,24.50
2022-11-07T09:46:11.685Z,20.45
2022-11-07T09:48:45.294Z,20.20
2022-11-07T09:51:26.755Z,20.93
2022-11-07T09:53:59.640Z,18.90
2022-11-07T09:56:29.056Z,18.40
2022-11-07T09:59:02.466Z,19.77
2022-11-07T10:01:33.132Z,23.40
2022-11-07T10:04:24.216Z,24.63
2022-11-07T10:06:53.951Z,18.63
2022-11-07T10:09:30.344Z,17.73
2022-11-07T10:12:05.919Z,19.23
2022-11-07T10:14:46.359Z,19.30
2022-11-07T10:17:26.141Z,20.27
2022-11-07T10:20:08.177Z,20.30
2022-11-07T10:22:53.714Z,18.90
2022-11-07T10:25:26.678Z,17.90
2022-11-07T10:28:10.476Z,20.83
2022-11-07T10:30:39.707Z,16.10
2022-11-07T10:33:18.902Z,19.42
2022-11-07T10:35:51.586Z,17.92
2022-11-07T10:38:24.393Z,18.40
2022-11-07T10:40:52.593Z,17.42
2022-11-07T10:43:32.947Z,21.92
2022-11-07T10:46:03.375Z,17.67
2022-11-07T10:48:31.434Z,19.65
2022-11-07T10:50:59.665Z,19.65
2022-11-07T10:53:28.081Z,17.65
2022-11-07T10:55:56.555Z,18.50
2022-11-07T10:58:26.821Z,17.38
2022-11-07T11:01:04.185Z,16.33
2022-11-07T11:03:43.735Z,16.42
2022-11-07T11:06:22.504Z,16.42
2022-11-07T11:08:52.900Z,18.02
2022-11-07T11:11:29.954Z,15.75
2022-11-07T11:14:12.972Z,17.05
2022-11-07T11:16:43.954Z,16.42
2022-11-07T11:19:22.649Z,17.95
2022-11-07T11:21:52.917Z,16.15
2022-11-07T11:24:31.041Z,17.30
2022-11-07T11:27:03.046Z,17.98
2022-11-07T11:29:39.970Z,17.13
2022-11-07T11:32:17.541Z,22.25
2022-11-07T11:34:54.855Z,17.35
2022-11-07T11:37:24.858Z,18.75
2022-11-07T11:40:07.201Z,16.65
2022-11-07T11:42:41.233Z,18.38
2022-11-07T11:45:17.042Z,18.15
2022-11-07T11:47:53.548Z,16.63
2022-11-07T11:50:26.137Z,16.48
2022-11-07T11:52:53.978Z,17.60
2022-11-07T11:55:24.959Z,17.92
2022-11-07T11:58:03.359Z,19.77
2022-11-07T12:00:36.662Z,18.00
2022-11-07T12:03:40.652Z,17.38
2022-11-07T12:06:16.256Z,17.08
2022-11-07T12:09:03.759Z,17.45
2022-11-07T12:11:40.110Z,17.15
2022-11-07T12:14:27.869Z,19.05
2022-11-07T12:17:00.402Z,18.38
2022-11-07T12:19:33.511Z,18.58
2022-11-07T12:22:07.590Z,19.55
2022-11-07T12:24:44.597Z,18.00
2022-11-07T12:27:21.424Z,21.45
2022-11-07T12:30:05.870Z,18.73
2022-11-07T12:32:47.112Z,16.30
2022-11-07T12:35:29.743Z,17.05
2022-11-07T12:38:31.116Z,17.70
2022-11-07T12:41:06.391Z,16.92
2022-11-07T12:43:51.367Z,16.45
2022-11-07T12:46:27.885Z,15.85
2022-11-07T12:49:16.459Z,16.73
2022-11-07T12:51:53.411Z,17.60
2022-11-07T12:54:36.956Z,16.02
2022-11-07T12:57:10.637Z,16.45
2022-11-07T12:59:40.478Z,18.70
2022-11-07T13:02:17.121Z,15.88
2022-11-07T13:04:52.466Z,16.95
2022-11-07T13:07:28.874Z,17.58
2022-11-07T13:10:02.795Z,18.80
2022-11-07T13:12:36.064Z,20.08
2022-11-07T13:15:05.567Z,16.92
2022-11-07T13:17:40.939Z,16.88
2022-11-07T13:20:27.591Z,16.63
2022-11-07T13:22:58.754Z,18.13
2022-11-07T13:25:30.168Z,17.42
2022-11-07T13:28:04.168Z,17.35
2022-11-07T13:30:37.123Z,17.27
2022-11-07T13:33:06.441Z,19.45
2022-11-07T13:35:36.335Z,18.58
2022-11-07T13:38:12.278Z,17.95
2022-11-07T13:40:45.830Z,16.77
2022-11-07T13:43:17.981Z,17.30
2022-11-07T13:45:50.570Z,17.58
2022-11-07T13:48:22.732Z,17.63
2022-11-07T13:50:58.832Z,16.75
2022-11-07T13:53:33.562Z,17.77
2022-11-07T13:56:04.413Z,19.80
2022-11-07T13:58:36.457Z,15.95
2022-11-07T14:01:09.700Z,15.90
2022-11-07T14:03:37.747Z,16.53
2022-11-07T14:06:06.915Z,18.37
2022-11-07T14:08:40.086Z,18.20
2022-11-07T14:11:17.129Z,16.63
2022-11-07T14:13:47.318Z,16.77
2022-11-07T14:16:21.441Z,15.87
2022-11-07T14:18:51.563Z,15.87
2022-11-07T14:21:24.376Z,18.67
2022-11-07T14:23:53.763Z,17.37
2022-11-07T14:26:24.335Z,18.47
2022-11-07T14:28:53.939Z,18.77
2022-11-07T14:31:27.650Z,22.87
2022-11-07T14:33:57.544Z,18.80
2022-11-07T14:36:25.940Z,20.20
2022-11-07T14:39:01.112Z,19.00
2022-11-07T14:41:29.880Z,19.73
2022-11-07T14:44:03.005Z,18.73
2022-11-07T14:46:31.407Z,19.83
2022-11-07T14:48:59.394Z,20.80
2022-11-07T14:51:29.771Z,22.17
2022-11-07T14:54:03.967Z,20.73
2022-11-07T14:56:34.959Z,20.23
2022-11-07T14:59:03.443Z,20.93
2022-11-07T15:01:32.996Z,18.97
2022-11-07T15:04:03.127Z,21.73
2022-11-07T15:06:34.501Z,26.13
2022-11-07T15:09:06.105Z,25.83
2022-11-07T15:11:35.600Z,28.80
2022-11-07T15:14:06.149Z,32.13
2022-11-07T15:16:38.977Z,35.67
2022-11-07T15:19:09.031Z,31.20
2022-11-07T15:21:38.478Z,29.63
2022-11-07T15:24:27.483Z,29.97
2022-11-07T15:27:03.070Z,36.30
2022-11-07T15:29:36.363Z,32.23
2022-11-07T15:32:14.275Z,29.17
2022-11-07T15:37:30.380Z,31.87
2022-11-07T15:39:59.700Z,29.07
2022-11-07T15:42:27.605Z,25.20
2022-11-07T15:44:55.452Z,35.37
2022-11-07T15:47:23.678Z,31.13
2022-11-07T15:49:51.906Z,34.40
2022-11-07T15:52:19.809Z,27.60
2022-11-07T15:54:47.807Z,35.30
2022-11-07T15:57:17.077Z,29.13
2022-11-07T15:59:45.238Z,29.13
2022-11-07T16:02:17.412Z,32.03
2022-11-07T16:04:45.378Z,30.33
2022-11-07T16:07:17.715Z,26.37
2022-11-07T16:09:48.380Z,26.37
2022-11-07T16:12:19.612Z,29.70
2022-11-07T16:14:47.591Z,29.33
2022-11-07T16:17:17.028Z,25.90
2022-11-07T16:19:44.971Z,26.23
2022-11-07T16:22:14.381Z,31.80
2022-11-07T16:24:42.339Z,27.03
2022-11-07T16:27:15.461Z,29.90
2022-11-07T16:29:45.133Z,28.23
2022-11-07T16:32:17.947Z,27.70
2022-11-07T16:34:46.991Z,28.80
2022-11-07T16:37:14.845Z,30.73
2022-11-07T16:39:42.712Z,35.90
2022-11-07T16:42:14.635Z,38.47
2022-11-07T16:44:43.988Z,35.73
2022-11-07T16:47:15.322Z,28.33
2022-11-07T16:49:43.724Z,33.70
2022-11-07T16:52:15.622Z,31.07
2022-11-07T16:54:43.744Z,33.80
2022-11-07T16:57:13.683Z,37.60
2022-11-07T16:59:41.783Z,35.23
2022-11-07T17:02:20.664Z,34.63
2022-11-07T17:04:48.887Z,30.00
2022-11-07T17:07:17.917Z,32.80
2022-11-07T17:09:45.764Z,29.37
2022-11-07T17:12:15.131Z,29.30
2022-11-07T17:14:43.039Z,32.33
2022-11-07T17:17:13.401Z,29.03
2022-11-07T17:19:42.643Z,34.13
2022-11-07T17:22:11.935Z,27.47
2022-11-07T17:24:40.367Z,35.87
2022-11-07T17:27:20.092Z,33.80
2022-11-07T17:29:47.946Z,34.40
2022-11-07T17:32:15.834Z,38.27
2022-11-07T17:34:45.128Z,42.87
2022-11-07T17:37:16.425Z,42.87
2022-11-07T17:39:47.426Z,43.13
2022-11-07T17:42:15.923Z,39.30
2022-11-07T17:44:43.799Z,39.87
2022-11-07T17:47:28.164Z,35.50
2022-11-07T17:49:57.472Z,34.70
2022-11-07T17:52:25.403Z,32.53
2022-11-07T17:54:53.495Z,33.43
2022-11-07T17:57:21.470Z,37.57
2022-11-07T17:59:49.585Z,34.07
2022-11-07T18:02:18.844Z,32.93
2022-11-07T18:04:47.541Z,35.37
2022-11-07T18:07:16.979Z,32.73
2022-11-07T18:09:44.846Z,34.17
2022-11-07T18:12:12.684Z,35.27
2022-11-07T18:14:40.591Z,36.13
2022-11-07T18:17:08.443Z,41.57
2022-11-07T18:19:36.479Z,47.87
2022-11-07T18:22:04.415Z,44.40
2022-11-07T18:24:33.784Z,42.00
2022-11-07T18:27:04.568Z,44.03
2022-11-07T18:29:35.883Z,43.23
2022-11-07T18:32:03.845Z,50.53
2022-11-07T18:34:31.683Z,54.33
2022-11-07T18:36:59.531Z,50.13
2022-11-07T18:39:28.223Z,61.27
2022-11-07T18:41:57.472Z,67.40
2022-11-07T18:44:25.606Z,78.77
2022-11-07T18:46:53.479Z,83.50
2022-11-07T18:49:21.383Z,60.40
2022-11-07T18:51:49.256Z,52.37
2022-11-07T18:54:17.168Z,53.63
2022-11-07T18:56:45.033Z,48.60
2022-11-07T18:59:14.334Z,53.47
2022-11-07T19:01:42.434Z,52.93
2022-11-07T19:04:12.098Z,61.30
2022-11-07T19:06:55.724Z,62.53
2022-11-07T19:09:25.373Z,60.00
2022-11-07T19:11:53.218Z,63.87
2022-11-07T19:14:23.280Z,60.07
2022-11-07T19:16:51.553Z,68.40
2022-11-07T19:19:19.601Z,66.27
2022-11-07T19:21:47.535Z,61.43
2022-11-07T19:24:15.638Z,95.57
2022-11-07T19:26:43.519Z,157.40
2022-11-07T19:29:11.420Z,186.57
2022-11-07T19:31:40.651Z,188.60
2022-11-07T19:34:08.531Z,168.70
2022-11-07T19:36:37.025Z,156.77
2022-11-07T19:39:04.915Z,119.47
2022-11-07T19:41:32.793Z,66.70
2022-11-07T19:44:04.271Z,45.67
2022-11-07T19:46:32.159Z,47.70
2022-11-07T19:49:01.363Z,38.77
2022-11-07T19:51:29.271Z,45.80
2022-11-07T19:53:59.062Z,47.40
2022-11-07T19:56:31.172Z,39.70
2022-11-07T19:59:01.180Z,48.53
2022-11-07T20:01:31.590Z,45.07
2022-11-07T20:04:01.414Z,44.03
2022-11-07T20:06:31.506Z,47.37
2022-11-07T20:08:59.678Z,39.23
2022-11-07T20:11:27.672Z,40.27
2022-11-07T20:14:01.799Z,42.87
2022-11-07T20:16:31.546Z,41.70
2022-11-07T20:19:01.024Z,42.07
2022-11-07T20:21:29.155Z,47.03
2022-11-07T20:23:59.474Z,45.03
2022-11-07T20:26:31.365Z,54.47
2022-11-07T20:28:59.876Z,54.87
2022-11-07T20:31:30.413Z,50.20
2022-11-07T20:33:58.956Z,50.37
2022-11-07T20:36:28.829Z,54.83
2022-11-07T20:38:57.135Z,55.93
2022-11-07T20:41:25.942Z,49.77
2022-11-07T20:43:54.691Z,46.33
2022-11-07T20:46:22.912Z,49.57
2022-11-07T20:48:50.814Z,44.80
2022-11-07T20:51:20.987Z,49.00
2022-11-07T20:53:51.014Z,46.60
2022-11-07T20:56:19.526Z,43.83
2022-11-07T20:58:48.007Z,48.37
2022-11-07T21:01:18.343Z,47.30
2022-11-07T21:03:46.487Z,44.83
2022-11-07T21:06:14.415Z,48.93
2022-11-07T21:08:45.027Z,44.70
2022-11-07T21:11:15.529Z,46.50
2022-11-07T21:13:49.649Z,51.97
2022-11-07T21:16:21.694Z,45.73
2022-11-07T21:18:49.991Z,45.00
2022-11-07T21:21:20.350Z,43.60
2022-11-07T21:23:50.108Z,49.17
2022-11-07T21:26:23.854Z,47.97
2022-11-07T21:28:51.846Z,49.30
2022-11-07T21:31:23.675Z,54.73
2022-11-07T21:33:51.892Z,55.13
2022-11-07T21:36:24.501Z,53.43
2022-11-07T21:38:54.335Z,43.87
2022-11-07T21:41:24.203Z,45.50
2022-11-07T21:43:52.674Z,44.60
2022-11-07T21:46:22.403Z,46.30
2022-11-07T21:48:50.950Z,40.37
2022-11-07T21:51:20.671Z,35.50
2022-11-07T21:53:49.170Z,39.67
2022-11-07T21:56:22.558Z,37.60
2022-11-07T21:58:53.371Z,36.53
2022-11-07T22:01:22.148Z,36.70
2022-11-07T22:04:06.035Z,39.03
2022-11-07T22:06:36.867Z,37.67
2022-11-07T22:09:06.215Z,37.83
2022-11-07T22:11:34.319Z,34.50
2022-11-07T22:14:04.114Z,40.50
2022-11-07T22:16:32.553Z,36.77
2022-11-07T22:19:01.151Z,37.23
2022-11-07T22:21:31.345Z,36.07
2022-11-07T22:23:59.298Z,39.47
2022-11-07T22:26:28.690Z,36.37
2022-11-07T22:28:57.169Z,34.27
2022-11-07T22:31:28.554Z,37.53
2022-11-07T22:33:58.259Z,33.47
2022-11-07T22:36:26.217Z,34.90
2022-11-07T22:38:54.143Z,32.37
2022-11-07T22:41:23.971Z,32.50
2022-11-07T22:43:52.773Z,32.10
2022-11-07T22:46:23.307Z,35.63
2022-11-07T22:48:53.413Z,34.70
2022-11-07T22:51:23.459Z,35.97
2022-11-07T22:53:57.303Z,34.17
2022-11-07T22:56:25.683Z,35.97
2022-11-07T22:58:53.730Z,34.07
2022-11-07T23:01:24.036Z,32.53
2022-11-07T23:03:54.371Z,32.13
2022-11-07T23:06:23.483Z,33.63
2022-11-07T23:08:52.092Z,38.57
2022-11-07T23:14:12.714Z,38.20
2022-11-07T23:16:44.185Z,38.30
2022-11-07T23:19:15.368Z,35.50
2022-11-07T23:21:44.835Z,38.40
2022-11-07T23:24:13.195Z,38.50
2022-11-07T23:26:41.072Z,47.27
2022-11-07T23:29:12.766Z,40.27
2022-11-07T23:31:40.866Z,42.03
2022-11-07T23:34:09.345Z,46.80
2022-11-07T23:36:40.794Z,43.43
2022-11-07T23:39:11.144Z,41.23
2022-11-07T23:41:39.011Z,40.30
2022-11-07T23:44:07.018Z,42.03
2022-11-07T23:46:52.422Z,37.90
2022-11-07T23:49:37.809Z,41.87
2022-11-07T23:52:07.160Z,43.27
2022-11-07T23:54:52.491Z,42.77
2022-11-07T23:57:20.430Z,44.73
